Time;durP1;ratioP1;P1;durP2;ratioP2;P2;SDS_P1;SDS_P2;PMS_P1;PMS_P2;Temp;Humidity;BMP_temperature;BMP_pressure;BME280_temperature;BME280_humidity;BME280_pressure;Samples;Min_cycle;Max_cycle;Signal;HPM_P1;HPM_P2
2024/01/03 00:00:25;;;;;;;14.52;3.22;;;7.20;99.90;;;;;;5135377;27;20083;-79
2024/01/03 00:02:51;;;;;;;10.60;3.88;;;7.10;99.90;;;;;;5115258;27;20072;-79
2024/01/03 00:05:23;;;;;;;14.30;3.13;;;7.20;99.90;;;;;;5134527;27;20019;-78
2024/01/03 00:07:49;;;;;;;10.00;3.30;;;7.20;99.90;;;;;;5133808;27;20372;-79
2024/01/03 00:10:32;;;;;;;13.90;2.47;;;7.20;99.90;;;;;;5134152;27;20088;-78
2024/01/03 00:12:58;;;;;;;10.40;3.22;;;7.20;99.90;;;;;;5133596;27;20023;-78
2024/01/03 00:15:36;;;;;;;12.13;2.83;;;7.20;99.90;;;;;;5133989;27;20023;-78
2024/01/03 00:18:05;;;;;;;11.65;3.47;;;7.20;99.90;;;;;;5134891;27;20019;-79
2024/01/03 00:20:33;;;;;;;14.90;3.30;;;7.20;99.90;;;;;;5134627;27;20027;-78
2024/01/03 00:23:02;;;;;;;11.07;2.45;;;7.20;99.90;;;;;;5133857;27;20094;-80
2024/01/03 00:25:29;;;;;;;9.15;2.25;;;7.10;99.90;;;;;;5134424;27;20023;-79
2024/01/03 00:27:56;;;;;;;14.82;3.42;;;7.20;99.90;;;;;;5134249;27;20110;-80
2024/01/03 00:30:22;;;;;;;13.07;3.28;;;7.10;99.90;;;;;;5134163;27;20046;-80
2024/01/03 00:32:48;;;;;;;10.05;2.80;;;7.10;99.90;;;;;;5133500;27;20425;-80
2024/01/03 00:35:14;;;;;;;11.25;2.95;;;7.20;99.90;;;;;;5134652;27;20019;-80
2024/01/03 00:37:44;;;;;;;6.43;2.55;;;7.10;99.90;;;;;;5134115;27;20015;-80
2024/01/03 00:40:30;;;;;;;9.82;2.88;;;7.00;99.90;;;;;;5134015;27;20043;-80
2024/01/03 00:42:56;;;;;;;10.60;3.28;;;7.00;99.90;;;;;;5118581;27;20039;-81
2024/01/03 00:45:22;;;;;;;10.15;2.70;;;7.00;99.90;;;;;;5134926;27;20089;-79
2024/01/03 00:47:48;;;;;;;10.75;2.72;;;7.00;99.90;;;;;;5115221;27;20030;-79
2024/01/03 00:50:15;;;;;;;12.30;2.60;;;7.00;99.90;;;;;;5134793;27;20463;-78
2024/01/03 00:52:41;;;;;;;17.30;4.80;;;7.00;99.90;;;;;;5117485;27;20020;-79
2024/01/03 00:55:09;;;;;;;15.13;3.10;;;7.00;99.90;;;;;;5117440;27;20130;-79
2024/01/03 00:57:36;;;;;;;16.65;3.38;;;7.00;99.90;;;;;;5119354;27;20034;-80
2024/01/03 01:00:03;;;;;;;13.60;2.70;;;7.00;99.90;;;;;;5137991;27;20019;-80
2024/01/03 01:02:29;;;;;;;13.77;3.20;;;7.00;99.90;;;;;;5139175;27;20019;-80
2024/01/03 01:04:55;;;;;;;8.65;3.33;;;7.10;99.90;;;;;;5138388;27;20104;-81
2024/01/03 01:07:21;;;;;;;14.73;3.95;;;7.10;99.90;;;;;;5117753;27;20087;-78
2024/01/03 01:09:47;;;;;;;9.35;2.58;;;7.10;99.90;;;;;;5117971;27;20057;-80
2024/01/03 01:12:13;;;;;;;8.90;2.40;;;7.10;99.90;;;;;;5136910;27;20360;-80
2024/01/03 01:14:39;;;;;;;11.20;2.50;;;7.10;99.90;;;;;;5133001;27;20067;-81
2024/01/03 01:17:04;;;;;;;12.80;2.10;;;7.20;99.90;;;;;;5132938;27;20108;-81
2024/01/03 01:19:30;;;;;;;7.57;2.83;;;7.20;99.90;;;;;;5114889;27;20023;-80
2024/01/03 01:21:56;;;;;;;11.75;3.45;;;7.20;99.90;;;;;;5132472;27;20019;-80
2024/01/03 01:24:21;;;;;;;9.90;2.33;;;7.30;99.90;;;;;;5133383;27;20023;-80
2024/01/03 01:26:47;;;;;;;8.95;2.38;;;7.20;99.90;;;;;;5132374;27;20023;-81
2024/01/03 01:29:13;;;;;;;7.30;2.78;;;7.20;99.90;;;;;;5133082;27;20102;-80
2024/01/03 01:31:39;;;;;;;12.93;3.08;;;7.30;99.90;;;;;;5114155;27;20023;-80
2024/01/03 01:34:05;;;;;;;7.55;2.25;;;7.30;99.90;;;;;;5133047;27;20038;-80
2024/01/03 01:36:31;;;;;;;7.75;2.22;;;7.40;99.90;;;;;;5114634;27;20019;-81
2024/01/03 01:38:56;;;;;;;11.57;2.40;;;7.30;99.90;;;;;;5114385;27;20524;-81
2024/01/03 01:41:22;;;;;;;7.93;2.00;;;7.40;99.90;;;;;;5132899;27;20026;-81
2024/01/03 01:43:48;;;;;;;10.45;2.42;;;7.40;99.90;;;;;;5113733;27;20059;-81
2024/01/03 01:46:14;;;;;;;6.30;2.20;;;7.40;99.90;;;;;;5114091;27;20026;-80
2024/01/03 01:48:42;;;;;;;11.13;2.17;;;7.40;99.90;;;;;;5132373;27;20402;-80
2024/01/03 01:51:09;;;;;;;12.48;2.22;;;7.40;99.90;;;;;;5133184;27;20019;-80
2024/01/03 01:53:35;;;;;;;8.88;2.20;;;7.40;99.90;;;;;;5132229;27;20027;-80
2024/01/03 01:56:01;;;;;;;11.55;2.85;;;7.50;99.90;;;;;;5113269;28;20075;-80
2024/01/03 01:58:28;;;;;;;6.75;2.00;;;7.50;99.90;;;;;;5132045;27;20023;-80
2024/01/03 02:00:54;;;;;;;8.07;2.30;;;7.50;99.90;;;;;;5131757;27;20028;-80
2024/01/03 02:03:21;;;;;;;9.88;2.08;;;7.40;99.90;;;;;;5132399;27;20324;-80
2024/01/03 02:05:47;;;;;;;7.35;2.10;;;7.50;99.90;;;;;;5131521;28;20106;-80
2024/01/03 02:08:13;;;;;;;8.02;1.70;;;7.40;99.90;;;;;;5113844;28;20088;-80
2024/01/03 02:10:39;;;;;;;7.80;2.10;;;7.40;99.90;;;;;;5132067;28;20076;-80
2024/01/03 02:13:04;;;;;;;13.73;2.60;;;7.40;99.90;;;;;;5132928;28;20129;-80
2024/01/03 02:15:30;;;;;;;9.52;2.10;;;7.30;99.90;;;;;;5132283;28;20020;-80
2024/01/03 02:17:57;;;;;;;16.85;2.45;;;7.40;99.90;;;;;;5131636;28;20361;-80
2024/01/03 02:20:30;;;;;;;9.93;2.38;;;7.50;99.90;;;;;;5132070;28;20019;-81
2024/01/03 02:22:56;;;;;;;8.85;2.30;;;7.50;99.90;;;;;;5131543;28;20019;-81
2024/01/03 02:25:21;;;;;;;10.75;2.35;;;7.50;99.90;;;;;;5132609;28;20030;-81
2024/01/03 02:27:48;;;;;;;12.48;2.75;;;7.60;99.90;;;;;;5112806;28;20321;-81
2024/01/03 02:30:15;;;;;;;11.25;2.08;;;7.60;99.90;;;;;;5132478;28;20030;-80
2024/01/03 02:32:40;;;;;;;13.13;3.05;;;7.60;99.90;;;;;;5113184;28;20038;-81
2024/01/03 02:35:06;;;;;;;11.65;2.42;;;7.60;99.90;;;;;;5132185;28;20444;-81
2024/01/03 02:37:32;;;;;;;9.05;2.08;;;7.60;99.90;;;;;;5131769;28;20023;-81
2024/01/03 02:39:58;;;;;;;9.07;2.25;;;7.50;99.90;;;;;;5131433;28;20019;-81
2024/01/03 02:42:24;;;;;;;11.30;2.72;;;7.50;99.90;;;;;;5113456;28;20035;-81
2024/01/03 02:44:49;;;;;;;6.15;2.20;;;7.50;99.90;;;;;;5112964;28;20027;-81
2024/01/03 02:47:15;;;;;;;10.13;2.50;;;7.40;99.90;;;;;;5132266;28;20023;-81
2024/01/03 02:49:41;;;;;;;10.10;2.50;;;7.30;99.90;;;;;;5131200;28;20094;-81
2024/01/03 02:52:07;;;;;;;10.38;2.38;;;7.30;99.90;;;;;;5131433;28;20019;-81
2024/01/03 02:54:32;;;;;;;15.30;3.13;;;7.30;99.90;;;;;;5132833;27;20456;-81
2024/01/03 02:56:58;;;;;;;12.45;2.40;;;7.30;99.90;;;;;;5134820;27;20027;-81
2024/01/03 02:59:26;;;;;;;9.82;2.47;;;7.30;99.90;;;;;;5135127;27;20463;-81
2024/01/03 03:01:52;;;;;;;14.68;2.85;;;7.20;99.90;;;;;;5116407;27;20402;-81
2024/01/03 03:04:18;;;;;;;13.70;2.53;;;7.30;99.90;;;;;;5135305;27;20027;-81
2024/01/03 03:06:44;;;;;;;10.00;2.35;;;7.30;99.90;;;;;;5135763;27;20122;-81
2024/01/03 03:09:10;;;;;;;16.08;2.92;;;7.30;99.90;;;;;;5135719;27;20031;-81
2024/01/03 03:11:36;;;;;;;11.52;2.65;;;7.30;99.90;;;;;;5117198;27;20019;-81
2024/01/03 03:14:01;;;;;;;12.45;2.97;;;7.30;99.90;;;;;;5134917;27;20202;-81
2024/01/03 03:16:27;;;;;;;13.05;2.22;;;7.40;99.90;;;;;;5135348;27;20045;-81
2024/01/03 03:18:53;;;;;;;11.23;2.80;;;7.50;99.90;;;;;;5134109;27;20318;-81
2024/01/03 03:21:18;;;;;;;11.63;2.58;;;7.50;99.90;;;;;;5134912;27;20098;-81
2024/01/03 03:23:44;;;;;;;13.52;2.63;;;7.40;99.90;;;;;;5134557;27;20474;-81
2024/01/03 03:26:12;;;;;;;13.88;2.78;;;7.50;99.90;;;;;;5134109;27;20107;-80
2024/01/03 03:28:38;;;;;;;8.38;2.60;;;7.60;99.90;;;;;;5134919;27;20048;-81
2024/01/03 03:31:04;;;;;;;11.10;2.85;;;7.50;99.90;;;;;;5134414;27;20307;-81
2024/01/03 03:33:33;;;;;;;12.20;2.45;;;7.60;99.90;;;;;;5135200;27;20023;-81
2024/01/03 03:35:58;;;;;;;13.80;3.42;;;7.60;99.90;;;;;;5134585;27;20034;-81
2024/01/03 03:38:24;;;;;;;7.00;2.42;;;7.60;99.90;;;;;;5134932;27;20015;-81
2024/01/03 03:40:50;;;;;;;13.73;2.72;;;7.60;99.90;;;;;;5134515;27;20080;-80
2024/01/03 03:43:15;;;;;;;13.45;2.53;;;7.60;99.90;;;;;;5135111;27;20027;-80
2024/01/03 03:45:41;;;;;;;14.07;2.65;;;7.50;99.90;;;;;;5134625;27;20019;-80
2024/01/03 03:48:07;;;;;;;13.82;3.00;;;7.60;99.90;;;;;;5134226;27;20027;-81
2024/01/03 03:50:33;;;;;;;11.68;2.63;;;7.60;99.90;;;;;;5134747;27;20019;-81
2024/01/03 03:52:58;;;;;;;10.85;2.30;;;7.50;99.90;;;;;;5115349;27;20074;-81
2024/01/03 03:55:25;;;;;;;11.65;2.80;;;7.50;99.90;;;;;;5134635;27;20047;-81
2024/01/03 03:57:52;;;;;;;12.50;3.08;;;7.50;99.90;;;;;;5133901;27;20050;-81
2024/01/03 04:00:19;;;;;;;16.38;3.65;;;7.60;99.90;;;;;;5134491;27;20018;-81
2024/01/03 04:02:45;;;;;;;12.13;2.70;;;7.60;99.90;;;;;;5133917;27;20102;-81
2024/01/03 04:05:12;;;;;;;6.60;2.60;;;7.60;99.90;;;;;;5133838;27;20126;-81
2024/01/03 04:07:37;;;;;;;13.10;2.53;;;7.60;99.90;;;;;;5134118;27;20114;-81
2024/01/03 04:10:03;;;;;;;5.18;2.38;;;7.50;99.90;;;;;;5133506;27;20102;-81
2024/01/03 04:12:29;;;;;;;10.57;2.50;;;7.60;99.90;;;;;;5133514;27;20015;-81
2024/01/03 04:14:55;;;;;;;12.57;2.90;;;7.50;99.90;;;;;;5133546;27;20401;-81
2024/01/03 04:17:21;;;;;;;10.10;2.67;;;7.50;99.90;;;;;;5134300;27;20019;-81
2024/01/03 04:19:46;;;;;;;10.40;2.72;;;7.50;99.90;;;;;;5133869;27;20028;-81
2024/01/03 04:22:12;;;;;;;10.25;2.55;;;7.50;99.90;;;;;;5133273;27;20441;-81
2024/01/03 04:24:38;;;;;;;11.13;2.80;;;7.60;99.90;;;;;;5133666;27;20452;-81
2024/01/03 04:27:04;;;;;;;12.27;2.80;;;7.50;99.90;;;;;;5133047;27;20019;-81
2024/01/03 04:29:31;;;;;;;10.45;2.55;;;7.50;99.90;;;;;;5115048;27;20416;-81
2024/01/03 04:31:57;;;;;;;13.00;2.80;;;7.50;99.90;;;;;;5133348;27;20451;-80
2024/01/03 04:34:22;;;;;;;8.15;2.55;;;7.60;99.90;;;;;;5133816;27;20316;-80
2024/01/03 04:36:48;;;;;;;10.50;2.65;;;7.60;99.90;;;;;;5133300;27;20023;-80
2024/01/03 04:39:14;;;;;;;7.95;2.60;;;7.70;99.90;;;;;;5133487;27;20052;-80
2024/01/03 04:41:40;;;;;;;12.18;2.50;;;7.60;99.90;;;;;;5133508;27;20049;-80
2024/01/03 04:44:06;;;;;;;15.13;3.10;;;7.60;99.90;;;;;;5132664;27;20050;-81
2024/01/03 04:46:31;;;;;;;11.63;3.03;;;7.60;99.90;;;;;;5115007;27;20023;-80
2024/01/03 04:48:57;;;;;;;12.20;3.05;;;7.60;99.90;;;;;;5114310;27;20302;-81
2024/01/03 04:51:23;;;;;;;7.72;2.63;;;7.50;99.90;;;;;;5133285;27;20011;-81
2024/01/03 04:53:50;;;;;;;12.63;2.80;;;7.50;99.90;;;;;;5132899;27;20030;-81
2024/01/03 04:56:16;;;;;;;8.20;2.33;;;7.50;99.90;;;;;;5133115;27;20456;-81
2024/01/03 04:58:42;;;;;;;11.10;3.10;;;7.40;99.90;;;;;;5133070;27;20023;-80
2024/01/03 05:01:08;;;;;;;12.52;3.15;;;7.40;99.90;;;;;;5132193;27;20028;-81
2024/01/03 05:03:33;;;;;;;12.32;2.95;;;7.40;99.90;;;;;;5114507;27;20473;-81
2024/01/03 05:05:59;;;;;;;8.32;3.38;;;7.40;99.90;;;;;;5132213;27;20372;-81
2024/01/03 05:08:25;;;;;;;11.20;2.92;;;7.40;99.90;;;;;;5133159;27;20026;-81
2024/01/03 05:10:51;;;;;;;11.10;2.67;;;7.40;99.90;;;;;;5114051;27;20023;-80
2024/01/03 05:13:16;;;;;;;14.70;3.13;;;7.40;99.90;;;;;;5132633;27;20034;-80
2024/01/03 05:15:42;;;;;;;14.32;3.20;;;7.50;99.90;;;;;;5133208;27;20440;-81
2024/01/03 05:18:08;;;;;;;11.38;3.00;;;7.50;99.90;;;;;;5131314;27;20039;-81
2024/01/03 05:20:33;;;;;;;12.52;3.25;;;7.60;99.90;;;;;;5132803;27;20047;-81
2024/01/03 05:22:59;;;;;;;10.68;2.88;;;7.60;99.90;;;;;;5132058;27;20066;-81
2024/01/03 05:25:25;;;;;;;8.43;2.53;;;7.70;99.90;;;;;;5132479;27;20034;-80
2024/01/03 05:27:51;;;;;;;10.95;2.85;;;7.60;99.90;;;;;;5132437;27;20103;-81
2024/01/03 05:30:16;;;;;;;8.55;3.13;;;7.60;99.90;;;;;;5132189;27;20397;-81
2024/01/03 05:32:42;;;;;;;9.68;2.55;;;7.70;99.90;;;;;;5132681;27;20042;-80
2024/01/03 05:35:08;;;;;;;13.45;3.53;;;7.60;99.90;;;;;;5132246;27;20027;-80
2024/01/03 05:37:34;;;;;;;9.32;3.35;;;7.60;99.90;;;;;;5132247;27;20069;-81
2024/01/03 05:40:00;;;;;;;13.52;3.25;;;7.50;99.90;;;;;;5132281;27;20052;-80
2024/01/03 05:42:27;;;;;;;12.07;3.20;;;7.50;99.90;;;;;;5132747;27;20030;-80
2024/01/03 05:44:53;;;;;;;10.77;3.10;;;7.50;99.90;;;;;;5132062;27;20035;-80
2024/01/03 05:47:18;;;;;;;8.52;3.47;;;7.50;99.90;;;;;;5132774;27;20136;-80
2024/01/03 05:49:44;;;;;;;10.32;3.95;;;7.50;99.90;;;;;;5132698;27;20336;-80
2024/01/03 05:52:10;;;;;;;11.38;3.35;;;7.50;99.90;;;;;;5132211;27;20022;-80
2024/01/03 05:54:35;;;;;;;10.23;3.47;;;7.50;99.90;;;;;;5132073;27;20122;-80
2024/01/03 05:57:02;;;;;;;10.48;3.95;;;7.50;99.90;;;;;;5131796;27;20026;-80
2024/01/03 05:59:28;;;;;;;12.38;3.70;;;7.60;99.90;;;;;;5132316;27;20023;-80
2024/01/03 06:01:54;;;;;;;8.52;3.42;;;7.60;99.90;;;;;;5132090;27;20174;-80
2024/01/03 06:04:20;;;;;;;11.65;3.15;;;7.70;99.90;;;;;;5131851;27;20507;-81
2024/01/03 06:06:46;;;;;;;11.65;3.30;;;7.70;99.90;;;;;;5131972;27;20026;-80
2024/01/03 06:09:11;;;;;;;8.00;3.13;;;7.60;99.90;;;;;;5131558;28;20119;-80
2024/01/03 06:11:37;;;;;;;8.65;3.05;;;7.60;99.90;;;;;;5132449;28;20045;-80
2024/01/03 06:14:03;;;;;;;9.68;2.70;;;7.70;99.90;;;;;;5131454;28;20033;-80
2024/01/03 06:16:29;;;;;;;7.60;2.60;;;7.70;99.90;;;;;;5131855;28;20019;-80
2024/01/03 06:18:54;;;;;;;7.93;2.88;;;7.70;99.90;;;;;;5131848;28;20058;-80
2024/01/03 06:21:20;;;;;;;7.85;3.10;;;7.60;99.90;;;;;;5113136;28;20034;-81
2024/01/03 06:23:46;;;;;;;7.85;3.03;;;7.60;99.90;;;;;;5132189;28;20027;-80
2024/01/03 06:26:12;;;;;;;9.65;3.58;;;7.60;99.90;;;;;;5131374;28;20023;-80
2024/01/03 06:28:38;;;;;;;8.60;3.33;;;7.60;99.90;;;;;;5134049;27;20084;-80
2024/01/03 06:31:03;;;;;;;7.10;2.78;;;7.60;99.90;;;;;;5117051;27;20023;-80
2024/01/03 06:33:29;;;;;;;7.57;3.05;;;7.50;99.90;;;;;;5135991;27;20060;-80
2024/01/03 06:35:57;;;;;;;7.68;3.17;;;7.50;99.90;;;;;;5135945;27;20030;-80
2024/01/03 06:38:23;;;;;;;11.02;3.58;;;7.40;99.90;;;;;;5117162;27;20019;-80
2024/01/03 06:40:48;;;;;;;12.73;3.10;;;7.40;99.90;;;;;;5135969;27;20023;-79
2024/01/03 06:43:14;;;;;;;12.52;3.60;;;7.40;99.90;;;;;;5117342;27;20049;-80
2024/01/03 06:45:40;;;;;;;10.38;3.13;;;7.30;99.90;;;;;;5135878;27;20094;-80
2024/01/03 06:48:07;;;;;;;7.68;3.35;;;7.30;99.90;;;;;;5135731;27;20043;-80
2024/01/03 06:50:32;;;;;;;6.55;3.15;;;7.20;99.90;;;;;;5135739;27;20027;-80
2024/01/03 06:52:58;;;;;;;6.85;3.22;;;7.20;99.90;;;;;;5135387;27;20027;-80
2024/01/03 06:55:24;;;;;;;9.57;3.80;;;7.10;99.90;;;;;;5135640;27;20356;-80
2024/01/03 06:57:50;;;;;;;10.77;4.07;;;7.10;99.90;;;;;;5135909;27;20024;-80
2024/01/03 07:00:16;;;;;;;8.52;3.47;;;7.10;99.90;;;;;;5135033;27;20026;-80
2024/01/03 07:02:42;;;;;;;8.18;3.50;;;7.10;99.90;;;;;;5135321;27;20480;-80
2024/01/03 07:05:08;;;;;;;10.07;3.72;;;7.10;99.90;;;;;;5134695;27;20027;-80
2024/01/03 07:07:34;;;;;;;8.73;3.40;;;7.00;99.90;;;;;;5135487;27;20019;-80
2024/01/03 07:09:59;;;;;;;10.05;3.70;;;7.10;99.90;;;;;;5134890;27;20027;-80
2024/01/03 07:12:25;;;;;;;10.93;4.03;;;7.10;99.90;;;;;;5135559;27;20368;-80
2024/01/03 07:14:51;;;;;;;8.70;3.30;;;7.20;99.90;;;;;;5135230;27;20042;-80
2024/01/03 07:17:17;;;;;;;6.55;3.25;;;7.20;99.90;;;;;;5135183;27;20114;-79
2024/01/03 07:19:42;;;;;;;9.95;3.70;;;7.20;99.90;;;;;;5136050;27;20012;-81
2024/01/03 07:22:08;;;;;;;8.25;3.60;;;7.30;99.90;;;;;;5134566;27;20447;-81
2024/01/03 07:24:38;;;;;;;9.65;3.50;;;7.40;99.90;;;;;;5134720;27;20028;-81
2024/01/03 07:27:04;;;;;;;11.10;3.53;;;7.40;99.90;;;;;;5115915;27;20076;-80
2024/01/03 07:29:30;;;;;;;8.27;3.20;;;7.40;99.90;;;;;;5134947;27;20024;-82
2024/01/03 07:31:56;;;;;;;12.05;4.22;;;7.40;99.90;;;;;;5135015;27;20015;-82
2024/01/03 07:34:21;;;;;;;11.90;3.63;;;7.40;99.90;;;;;;5116380;27;20031;-79
2024/01/03 07:36:49;;;;;;;11.70;3.50;;;7.40;99.90;;;;;;5116634;27;20178;-80
2024/01/03 07:39:15;;;;;;;8.05;3.15;;;7.40;99.90;;;;;;5115448;27;20019;-82
2024/01/03 07:41:41;;;;;;;8.05;3.08;;;7.40;99.90;;;;;;5134324;27;20054;-82
2024/01/03 07:44:06;;;;;;;8.50;3.05;;;7.40;99.90;;;;;;5134586;27;20024;-81
2024/01/03 07:46:32;;;;;;;7.22;3.00;;;7.40;99.90;;;;;;5135044;27;20090;-81
2024/01/03 07:48:58;;;;;;;7.45;3.05;;;7.40;99.90;;;;;;5135214;27;20160;-81
2024/01/03 07:51:23;;;;;;;6.50;3.15;;;7.40;99.90;;;;;;5134040;27;20026;-81
2024/01/03 07:53:49;;;;;;;11.10;3.20;;;7.30;99.90;;;;;;5116209;27;20788;-81
2024/01/03 07:56:15;;;;;;;8.82;3.33;;;7.40;99.90;;;;;;5134045;27;20057;-82
2024/01/03 07:58:40;;;;;;;6.30;2.80;;;7.40;99.90;;;;;;5134640;27;20021;-82
2024/01/03 08:01:06;;;;;;;10.63;3.50;;;7.40;99.90;;;;;;5134002;27;20015;-82
2024/01/03 08:03:32;;;;;;;5.50;2.92;;;7.30;99.90;;;;;;5134893;27;20024;-82
2024/01/03 08:05:57;;;;;;;8.30;2.97;;;7.30;99.90;;;;;;5116525;27;20110;-82
2024/01/03 08:08:23;;;;;;;8.93;2.80;;;7.30;99.90;;;;;;5134975;27;20078;-82
2024/01/03 08:10:49;;;;;;;6.90;3.25;;;7.30;99.90;;;;;;5134675;27;20094;-82
2024/01/03 08:13:15;;;;;;;8.88;3.33;;;7.40;99.90;;;;;;5115327;27;20027;-81
2024/01/03 08:15:41;;;;;;;11.07;3.63;;;7.40;99.90;;;;;;5134768;27;20439;-82
2024/01/03 08:18:07;;;;;;;8.82;3.50;;;7.30;99.90;;;;;;5133528;27;20401;-82
2024/01/03 08:20:33;;;;;;;11.57;4.32;;;7.40;99.90;;;;;;5116174;27;20118;-82
2024/01/03 08:22:59;;;;;;;11.18;3.67;;;7.40;99.90;;;;;;5115874;27;20023;-82
2024/01/03 08:25:24;;;;;;;10.25;3.63;;;7.40;99.90;;;;;;5133991;27;20023;-81
2024/01/03 08:27:50;;;;;;;7.03;3.10;;;7.30;99.90;;;;;;5115605;27;20023;-82
2024/01/03 08:30:16;;;;;;;10.98;3.97;;;7.40;99.90;;;;;;5134215;27;20463;-81
2024/01/03 08:32:42;;;;;;;6.93;3.35;;;7.40;99.90;;;;;;5134283;27;20023;-81
2024/01/03 08:35:08;;;;;;;9.70;3.40;;;7.40;99.90;;;;;;5114848;27;20019;-82
2024/01/03 08:37:34;;;;;;;9.57;3.55;;;7.50;99.90;;;;;;5135281;27;20019;-82
2024/01/03 08:40:04;;;;;;;11.88;3.70;;;7.60;99.90;;;;;;5134370;27;20023;-82
2024/01/03 08:42:30;;;;;;;10.95;4.03;;;7.50;99.90;;;;;;5133744;27;20022;-82
2024/01/03 08:44:56;;;;;;;7.40;3.60;;;7.60;99.90;;;;;;5131872;27;20031;-82
2024/01/03 08:47:21;;;;;;;7.32;3.58;;;7.60;99.90;;;;;;5101378;27;20015;-82
2024/01/03 08:49:47;;;;;;;12.18;3.17;;;7.60;99.90;;;;;;5124466;27;20022;-82
2024/01/03 08:52:13;;;;;;;11.00;3.95;;;7.70;99.90;;;;;;5131045;27;20090;-82
2024/01/03 08:54:40;;;;;;;13.68;3.88;;;7.60;99.90;;;;;;5133816;27;20058;-82
2024/01/03 08:57:08;;;;;;;14.93;3.90;;;7.70;99.90;;;;;;5134044;27;20038;-82
2024/01/03 08:59:35;;;;;;;5.07;2.75;;;7.60;99.90;;;;;;5130479;27;20058;-82
2024/01/03 09:02:01;;;;;;;8.95;3.20;;;7.70;99.90;;;;;;5153611;27;20010;-82
2024/01/03 09:04:27;;;;;;;9.63;3.50;;;7.60;99.90;;;;;;5151129;27;20031;-81
2024/01/03 09:06:53;;;;;;;8.27;3.50;;;7.60;99.90;;;;;;5143024;27;20392;-81
2024/01/03 09:09:19;;;;;;;7.22;2.90;;;7.70;99.90;;;;;;5126892;27;20041;-82
2024/01/03 09:11:44;;;;;;;9.18;2.90;;;7.60;99.90;;;;;;5123483;27;20474;-81
2024/01/03 09:14:11;;;;;;;5.60;2.60;;;7.70;99.90;;;;;;5122361;27;20074;-82
2024/01/03 09:16:39;;;;;;;6.95;2.75;;;7.70;99.90;;;;;;5098120;28;20368;-81
2024/01/03 09:19:05;;;;;;;8.13;3.00;;;7.70;99.90;;;;;;5113309;28;20016;-81
2024/01/03 09:21:31;;;;;;;9.75;3.03;;;7.60;99.90;;;;;;5114443;28;20028;-80
2024/01/03 09:23:58;;;;;;;8.10;2.88;;;7.80;99.90;;;;;;5121521;27;20425;-81
2024/01/03 09:26:23;;;;;;;10.02;3.00;;;7.80;99.90;;;;;;5124727;27;20448;-81
2024/01/03 09:28:49;;;;;;;9.75;2.85;;;7.80;99.90;;;;;;5129344;27;20026;-83
2024/01/03 09:31:15;;;;;;;7.85;3.53;;;7.80;99.90;;;;;;5120177;27;20490;-82
2024/01/03 09:33:41;;;;;;;11.15;3.40;;;7.80;99.90;;;;;;5136582;27;20114;-82
2024/01/03 09:36:16;;;;;;;9.32;3.00;;;7.90;99.90;;;;;;5117763;27;20030;-82
2024/01/03 09:38:42;;;;;;;7.72;3.00;;;7.90;99.90;;;;;;5118322;27;20030;-81
2024/01/03 09:41:12;;;;;;;7.18;3.10;;;7.80;99.90;;;;;;5136824;27;20023;-84
2024/01/03 09:43:42;;;;;;;9.05;2.70;;;7.80;99.90;;;;;;5133791;27;20055;-83
2024/01/03 09:46:12;;;;;;;10.68;3.22;;;7.90;99.90;;;;;;5125956;27;20022;-82
2024/01/03 09:48:48;;;;;;;7.28;3.17;;;7.90;99.90;;;;;;5102955;27;20362;-82
2024/01/03 09:51:15;;;;;;;6.85;2.88;;;8.00;99.90;;;;;;5105580;28;20027;-82
2024/01/03 09:53:41;;;;;;;7.97;2.90;;;7.90;99.90;;;;;;5108161;27;20431;-82
2024/01/03 09:56:07;;;;;;;7.53;3.05;;;7.90;99.90;;;;;;5132905;27;20110;-82
2024/01/03 09:58:36;;;;;;;8.95;2.65;;;7.90;99.90;;;;;;5132310;27;20122;-82
2024/01/03 10:01:03;;;;;;;9.30;2.78;;;8.00;99.90;;;;;;5126680;27;20019;-83
2024/01/03 10:03:29;;;;;;;11.25;3.10;;;8.00;99.90;;;;;;5123219;27;20035;-82
2024/01/03 10:06:12;;;;;;;7.80;2.83;;;8.00;99.90;;;;;;5122018;27;20365;-83
2024/01/03 10:08:39;;;;;;;7.45;2.55;;;8.00;99.90;;;;;;5111885;28;20046;-82
2024/01/03 10:11:19;;;;;;;8.73;2.95;;;8.10;99.90;;;;;;5111790;28;20119;-82
2024/01/03 10:13:45;;;;;;;7.60;2.42;;;8.00;99.90;;;;;;5112156;28;20019;-83
2024/01/03 10:16:11;;;;;;;9.13;2.50;;;8.10;99.90;;;;;;5111110;28;20396;-83
2024/01/03 10:18:38;;;;;;;8.07;2.88;;;8.10;99.90;;;;;;5111192;28;20460;-81
2024/01/03 10:21:12;;;;;;;10.30;2.72;;;8.20;99.90;;;;;;5099584;28;20047;-82
2024/01/03 10:23:38;;;;;;;10.95;2.88;;;8.10;99.90;;;;;;5122792;28;20042;-82
2024/01/03 10:26:04;;;;;;;8.30;2.70;;;8.10;99.90;;;;;;5120555;28;20016;-83
2024/01/03 10:28:30;;;;;;;6.93;3.25;;;8.20;99.90;;;;;;5126300;28;20127;-82
2024/01/03 10:30:57;;;;;;;9.38;3.20;;;8.20;99.90;;;;;;5131594;28;20047;-82
2024/01/03 10:33:23;;;;;;;8.40;3.15;;;8.20;99.90;;;;;;5131275;28;20046;-83
2024/01/03 10:35:49;;;;;;;10.02;3.30;;;8.30;99.90;;;;;;5131686;28;20050;-82
2024/01/03 10:38:16;;;;;;;8.45;3.22;;;8.20;99.90;;;;;;5131507;28;20054;-83
2024/01/03 10:40:41;;;;;;;9.68;3.00;;;8.10;99.90;;;;;;5131845;28;20019;-83
2024/01/03 10:43:10;;;;;;;6.93;3.40;;;8.10;99.90;;;;;;5131314;28;20023;-83
2024/01/03 10:45:36;;;;;;;9.13;3.45;;;8.10;99.90;;;;;;5131854;28;20320;-83
2024/01/03 10:48:03;;;;;;;7.78;3.40;;;8.10;99.90;;;;;;5131232;28;20019;-83
2024/01/03 10:50:29;;;;;;;12.20;4.05;;;8.10;99.90;;;;;;5131420;28;20034;-83
2024/01/03 10:52:58;;;;;;;14.50;4.97;;;8.20;99.90;;;;;;5132259;28;20020;-83
2024/01/03 10:55:53;;;;;;;11.27;5.13;;;8.20;99.90;;;;;;5130386;28;20110;-83
2024/01/03 10:58:23;;;;;;;10.43;5.00;;;8.10;99.90;;;;;;5129112;28;20027;-83
2024/01/03 11:01:28;;;;;;;10.48;4.75;;;8.20;99.90;;;;;;5131439;28;20062;-83
2024/01/03 11:04:21;;;;;;;10.82;4.43;;;8.10;99.90;;;;;;5130645;28;20065;-83
2024/01/03 11:07:07;;;;;;;13.13;5.70;;;8.10;99.90;;;;;;5130812;28;20076;-83
2024/01/03 11:09:34;;;;;;;8.70;4.50;;;8.10;99.90;;;;;;5130627;28;20620;-83
2024/01/03 11:12:10;;;;;;;8.88;3.72;;;8.20;99.90;;;;;;5131494;28;20023;-83
2024/01/03 11:14:36;;;;;;;8.52;3.70;;;8.20;99.90;;;;;;5112377;28;20049;-83
2024/01/03 11:17:03;;;;;;;9.07;3.92;;;8.10;99.90;;;;;;5139692;27;20400;-82
2024/01/03 11:19:32;;;;;;;12.60;4.38;;;8.20;99.90;;;;;;5134715;27;20366;-83
2024/01/03 11:22:03;;;;;;;9.38;3.75;;;8.10;99.90;;;;;;5135602;27;20030;-83
2024/01/03 11:24:28;;;;;;;12.07;4.05;;;8.10;99.90;;;;;;5134660;27;20031;-83
2024/01/03 11:26:54;;;;;;;10.20;4.00;;;8.20;99.90;;;;;;5135116;27;20075;-84
2024/01/03 11:29:35;;;;;;;10.05;5.13;;;8.10;99.90;;;;;;5115945;27;20436;-83
2024/01/03 11:32:03;;;;;;;9.00;4.40;;;8.00;99.90;;;;;;5132972;27;20098;-83
2024/01/03 11:34:48;;;;;;;9.30;4.43;;;8.10;99.90;;;;;;5133778;27;20034;-83
2024/01/03 11:37:18;;;;;;;9.02;4.90;;;8.10;99.90;;;;;;5116485;27;20057;-82
2024/01/03 11:39:50;;;;;;;12.90;4.63;;;8.00;99.90;;;;;;5134538;27;20031;-82
2024/01/03 11:42:29;;;;;;;9.27;4.57;;;8.10;99.90;;;;;;5132374;27;20015;-83
2024/01/03 11:45:05;;;;;;;10.32;4.63;;;8.00;99.90;;;;;;5132761;27;20039;-83
2024/01/03 11:47:35;;;;;;;8.07;4.35;;;8.00;99.90;;;;;;5134965;27;20102;-83
2024/01/03 11:50:03;;;;;;;7.70;5.03;;;8.10;99.90;;;;;;5116162;27;20372;-83
2024/01/03 11:52:32;;;;;;;10.18;4.32;;;8.00;99.90;;;;;;5134055;27;20027;-83
2024/01/03 11:55:03;;;;;;;13.68;4.90;;;8.00;99.90;;;;;;5111588;28;20047;-83
2024/01/03 11:57:30;;;;;;;11.60;5.13;;;8.00;99.90;;;;;;5114048;28;20020;-82
2024/01/03 11:59:59;;;;;;;10.82;4.63;;;8.00;99.90;;;;;;5113921;28;20110;-83
2024/01/03 12:02:26;;;;;;;9.70;5.13;;;8.00;99.90;;;;;;5097620;28;20106;-83
2024/01/03 12:05:06;;;;;;;12.60;5.05;;;8.10;99.90;;;;;;5084073;28;20020;-83
2024/01/03 12:07:35;;;;;;;9.43;6.00;;;8.10;99.90;;;;;;5087740;28;20027;-82
2024/01/03 12:10:03;;;;;;;9.45;5.60;;;8.00;99.90;;;;;;5093392;28;20034;-82
2024/01/03 12:12:30;;;;;;;14.27;5.57;;;8.00;99.90;;;;;;5093200;28;20046;-82
2024/01/03 12:14:56;;;;;;;9.70;5.07;;;8.10;99.90;;;;;;5093650;28;20024;-83
2024/01/03 12:17:29;;;;;;;10.55;4.88;;;8.10;99.90;;;;;;5090662;28;20059;-82
2024/01/03 12:20:07;;;;;;;12.10;4.45;;;8.10;99.90;;;;;;5078660;28;20027;-82
2024/01/03 12:22:33;;;;;;;7.93;4.00;;;8.20;99.90;;;;;;5080511;28;20072;-82
2024/01/03 12:24:58;;;;;;;9.10;4.45;;;8.10;99.90;;;;;;5082981;28;20060;-83
2024/01/03 12:27:24;;;;;;;7.35;3.80;;;8.20;99.90;;;;;;5080180;28;20059;-82
2024/01/03 12:29:51;;;;;;;10.75;3.90;;;8.20;99.90;;;;;;5081663;28;20252;-83
2024/01/03 12:32:18;;;;;;;10.40;3.85;;;8.20;99.90;;;;;;5089889;28;20043;-82
2024/01/03 12:34:46;;;;;;;6.30;3.42;;;8.30;99.90;;;;;;5092537;28;20122;-82
2024/01/03 12:37:13;;;;;;;11.00;3.40;;;8.30;99.90;;;;;;5092216;28;20345;-82
2024/01/03 12:39:40;;;;;;;13.25;3.55;;;8.40;99.90;;;;;;5078558;28;20032;-83
2024/01/03 12:42:11;;;;;;;7.97;3.55;;;8.30;99.90;;;;;;5090078;28;20333;-83
2024/01/03 12:44:38;;;;;;;5.97;3.40;;;8.30;99.90;;;;;;5092273;28;20293;-83
2024/01/03 12:47:08;;;;;;;10.52;3.72;;;8.50;99.90;;;;;;5092587;28;20352;-83
2024/01/03 12:49:36;;;;;;;7.93;3.45;;;8.50;99.90;;;;;;5091855;28;20027;-83